Latest Weather Observations for Noonamah

IDD60801

Issued at 11:31 am CST Sunday 2 August 2015 (issued every 30 minutes, with the page automatically refreshed every 10 minutes)

About weather observations | Map of weather stations | Latest weather observations for NT | Other Formats
Station Details ID: 014314 Name: NOONAMAH AIRSTRIP Lat: -12.61 Lon: 131.05 Height: 17.5 m
Data from the previous 72 hours. | See also: Recent months for locations in Northern Territory
Date/Time
CST
Temp
°C
App
Temp
°C
Dew
Point
Rel
Hum
%
Delta-T
°C
Wind Press
QNH
hPa
Press
MSL
hPa
Rain
since 9 am
mm
Dir
 
Spd
km/h
Gust
km/h
Spd
kts
Gust
kts
02/11:30am 29.6 28.2 13.4 37 9.6 ENE 13 22 7 12 1016.3 1016.2 0.0
02/11:00am 28.5 26.3 13.2 39 9.0 E 17 28 9 15 1016.7 1016.6 0.0
02/10:30am 28.3 27.2 15.2 44 8.0 ENE 15 24 8 13 1016.8 1016.7 0.0
02/10:00am 27.5 27.2 17.4 54 6.4 ENE 15 24 8 13 1017.1 1017.0 0.0
02/09:30am 26.3 27.6 19.2 65 4.6 ENE 11 20 6 11 1017.1 1017.0 0.0
02/09:00am 25.2 27.5 19.8 72 3.5 ENE 7 11 4 6 1016.9 1016.8 0.0
02/08:30am 22.2 24.4 18.4 79 2.4 E 4 7 2 4 1016.6 1016.5 0.0
02/08:00am 19.6 21.9 16.8 84 1.7 CALM 0 0 0 0 1016.2 1016.1 0.0
02/07:30am 17.3 19.0 15.1 87 1.3 CALM 0 0 0 0 1015.9 1015.8 0.0
02/07:00am 17.2 18.8 15.0 87 1.3 CALM 0 0 0 0 1015.6 1015.5 0.0
02/06:30am 17.3 18.7 15.5 89 1.1 SE 2 4 1 2 1015.3 1015.2 0.0
02/06:00am 17.1 18.1 15.3 89 1.0 SE 4 6 2 3 1015.1 1015.0 0.0
02/05:30am 16.9 18.2 15.1 89 1.0 ESE 2 4 1 2 1014.8 1014.7 0.0
02/05:00am 16.9 18.2 15.1 89 1.0 E 2 4 1 2 1014.5 1014.4 0.0
02/04:30am 16.8 18.3 14.6 87 1.3 CALM 0 0 0 0 1014.3 1014.2 0.0
02/04:00am 16.9 18.5 14.9 88 1.2 CALM 0 6 0 3 1014.2 1014.1 0.0
02/03:30am 17.3 18.9 14.9 86 1.4 CALM 0 0 0 0 1014.1 1014.0 0.0
02/03:00am 17.5 19.1 15.0 85 1.5 CALM 0 0 0 0 1014.1 1014.0 0.0
02/02:30am 18.0 20.0 16.0 88 1.2 CALM 0 0 0 0 1014.4 1014.3 0.0
02/02:00am 18.1 20.0 15.7 86 1.4 CALM 0 0 0 0 1014.5 1014.4 0.0
02/01:30am 18.4 20.4 16.0 86 1.4 CALM 0 0 0 0 1014.6 1014.5 0.0
02/01:00am 18.2 20.0 15.6 85 1.5 CALM 0 0 0 0 1014.6 1014.5 0.0
02/12:30am 18.7 20.6 15.8 83 1.7 CALM 0 0 0 0 1014.6 1014.5 0.0
02/12:00am 18.7 20.6 15.8 83 1.7 CALM 0 0 0 0 1014.5 1014.4 0.0
 
Date/Time
CST
Temp
°C
App
Temp
°C
Dew
Point
Rel
Hum
%
Delta-T
°C
Wind Press
QNH
hPa
Press
MSL
hPa
Rain
since 9 am
mm
Dir
 
Spd
km/h
Gust
km/h
Spd
kts
Gust
kts
01/11:30pm 19.3 21.3 16.0 81 2.0 CALM 0 0 0 0 1014.4 1014.3 0.0
01/11:00pm 19.8 21.5 16.3 80 2.1 NE 2 4 1 2 1014.5 1014.4 0.0
01/10:30pm 20.8 23.0 16.6 77 2.5 CALM 0 0 0 0 1014.5 1014.4 0.0
01/10:00pm 21.2 23.4 16.4 74 2.9 CALM 0 0 0 0 1014.5 1014.4 0.0
01/09:30pm 22.4 24.4 16.9 71 3.4 WSW 2 2 1 1 1014.2 1014.1 0.0
01/09:00pm 22.9 25.2 16.7 68 3.8 CALM 0 0 0 0 1013.9 1013.8 0.0
01/08:30pm 24.0 25.9 17.7 68 3.9 WNW 4 6 2 3 1013.3 1013.2 0.0
01/08:00pm 24.8 27.0 18.3 67 4.1 WNW 4 6 2 3 1013.1 1013.0 0.0
01/07:30pm 25.7 27.4 18.1 63 4.8 W 6 11 3 6 1012.7 1012.6 0.0
01/07:00pm 26.7 27.7 17.8 58 5.6 W 9 13 5 7 1012.3 1012.2 0.0
01/06:30pm 28.4 29.3 16.0 47 7.7 NW 6 7 3 4 1012.1 1012.0 0.0
01/06:00pm 29.5 29.6 15.6 43 8.6 NNW 9 17 5 9 1011.8 1011.7 0.0
01/05:30pm 31.4 31.5 14.5 35 10.3 NW 7 11 4 6 1011.5 1011.4 0.0
01/05:00pm 32.8 31.0 9.6 24 13.2 ESE 9 17 5 9 1011.3 1011.2 0.0
01/04:30pm 33.1 31.8 9.8 24 13.3 ESE 7 15 4 8 1011.3 1011.2 0.0
01/04:00pm 33.0 31.3 9.7 24 13.3 ESE 9 17 5 9 1011.4 1011.3 0.0
01/03:30pm 33.0 31.8 10.4 25 13.0 ESE 7 13 4 7 1011.5 1011.4 0.0
01/03:00pm 33.0 31.2 10.9 26 12.9 SSE 11 20 6 11 1011.8 1011.7 0.0
01/02:30pm 32.4 31.2 11.6 28 12.2 SE 9 19 5 10 1012.3 1012.2 0.0
01/02:00pm 32.6 31.6 12.3 29 12.0 E 9 20 5 11 1012.7 1012.6 0.0
01/01:30pm 31.6 29.7 11.9 30 11.6 SSE 13 22 7 12 1013.3 1013.2 0.0
01/01:00pm 31.3 29.1 12.2 31 11.3 SE 15 24 8 13 1013.9 1013.8 0.0
01/12:30pm 31.1 29.4 12.5 32 11.0 E 13 24 7 13 1014.5 1014.4 0.0
01/12:00pm 30.5 29.2 12.4 33 10.7 E 11 24 6 13 1014.9 1014.8 0.0
01/11:30am 29.8 28.1 13.5 36 9.7 ENE 15 24 8 13 1015.3 1015.2 0.0
01/11:00am 29.0 27.4 14.0 39 9.0 E 15 24 8 13 1015.7 1015.6 0.0
01/10:30am 28.8 28.7 16.0 45 7.9 E 11 19 6 10 1016.0 1015.9 0.0
01/10:00am 27.6 27.9 16.9 52 6.7 E 11 15 6 8 1016.1 1016.0 0.0
01/09:30am 26.3 26.6 17.9 60 5.3 ENE 13 20 7 11 1016.1 1016.0 0.0
01/09:00am 25.1 27.5 20.1 74 3.2 E 7 13 4 7 1015.8 1015.7 0.0
01/08:30am 23.4 25.9 19.8 80 2.3 E 6 9 3 5 1015.5 1015.4 0.0
01/08:00am 20.5 23.0 18.1 86 1.5 SE 2 4 1 2 1015.2 1015.1 0.0
01/07:30am 18.5 20.3 16.5 88 1.2 SE 2 4 1 2 1014.9 1014.8 0.0
01/07:00am 18.4 20.4 16.0 86 1.4 CALM 0 0 0 0 1014.6 1014.5 0.0
01/06:30am 18.6 20.5 15.8 84 1.7 CALM 0 0 0 0 1014.3 1014.2 0.0
01/06:00am 18.9 20.9 16.0 83 1.7 CALM 0 0 0 0 1014.1 1014.0 0.0
01/05:30am 19.3 21.5 16.5 84 1.7 CALM 0 0 0 0 1014.0 1013.9 0.0
01/05:00am 19.2 21.3 16.2 83 1.8 CALM 0 0 0 0 1013.9 1013.8 0.0
01/04:30am 19.6 21.7 16.3 81 2.0 CALM 0 0 0 0 1013.8 1013.7 0.0
01/04:00am 19.8 22.0 16.4 81 2.0 CALM 0 0 0 0 1013.8 1013.7 0.0
01/03:30am 20.1 21.9 16.5 80 2.2 SE 2 6 1 3 1013.9 1013.8 0.0
01/03:00am 20.3 22.2 16.7 80 2.2 ESE 2 4 1 2 1014.0 1013.9 0.0
01/02:30am 20.0 22.2 16.4 80 2.2 CALM 0 0 0 0 1014.1 1014.0 0.0
01/02:00am 20.2 22.3 16.2 78 2.4 CALM 0 0 0 0 1014.1 1014.0 0.0
01/01:30am 20.8 23.1 16.8 78 2.4 CALM 0 0 0 0 1014.2 1014.1 0.0
01/01:00am 21.3 23.6 16.7 75 2.8 CALM 0 0 0 0 1014.2 1014.1 0.0
01/12:30am 22.7 24.7 16.9 70 3.6 S 2 4 1 2 1014.3 1014.2 0.0
01/12:00am 23.3 24.8 17.5 70 3.6 SSW 6 7 3 4 1014.2 1014.1 0.0
 
Date/Time
CST
Temp
°C
App
Temp
°C
Dew
Point
Rel
Hum
%
Delta-T
°C
Wind Press
QNH
hPa
Press
MSL
hPa
Rain
since 9 am
mm
Dir
 
Spd
km/h
Gust
km/h
Spd
kts
Gust
kts
31/11:30pm 23.6 25.0 17.3 67 3.9 SSW 6 9 3 5 1014.2 1014.1 0.0
31/11:00pm 23.9 24.9 16.9 65 4.3 SSW 7 9 4 5 1014.1 1014.0 0.0
31/10:30pm 23.6 25.8 16.6 65 4.3 CALM 0 6 0 3 1013.8 1013.7 0.0
31/10:00pm 24.1 26.1 16.9 64 4.4 WSW 2 4 1 2 1013.3 1013.2 0.0
31/09:30pm 23.9 26.2 16.7 64 4.4 CALM 0 0 0 0 1012.9 1012.8 0.0
31/09:00pm 24.9 26.4 16.6 60 5.1 NE 4 6 2 3 1012.8 1012.7 0.0
31/08:30pm 25.5 26.9 16.4 57 5.6 NNE 4 6 2 3 1012.6 1012.5 0.0
31/08:00pm 26.0 27.1 15.7 53 6.3 NNE 4 7 2 4 1012.3 1012.2 0.0
31/07:30pm 26.8 27.9 15.5 50 6.9 NNE 4 7 2 4 1012.0 1011.9 0.0
31/07:00pm 27.6 28.2 15.3 47 7.5 NNE 6 9 3 5 1011.7 1011.6 0.0
31/06:30pm 28.7 28.7 15.2 43 8.3 N 9 13 5 7 1011.3 1011.2 0.0
31/06:00pm 29.9 29.5 15.2 41 9.0 NNE 11 20 6 11 1011.0 1010.9 0.0
31/05:30pm 31.1 30.1 14.7 37 10.0 NE 13 19 7 10 1010.7 1010.6 0.0
31/05:00pm 31.5 31.0 13.7 33 10.7 NE 9 15 5 8 1010.6 1010.5 0.0
31/04:30pm 32.3 31.5 13.0 31 11.6 NNE 9 15 5 8 1010.5 1010.4 0.0
31/04:00pm 32.6 30.9 12.3 29 12.0 NNE 13 32 7 17 1010.4 1010.3 0.0
31/03:30pm 33.1 30.6 11.0 26 12.9 ESE 15 22 8 12 1010.6 1010.5 0.0
31/03:00pm 32.5 30.2 10.5 26 12.7 ENE 13 24 7 13 1011.0 1010.9 0.0
31/02:30pm 32.7 29.8 9.5 24 13.2 E 15 30 8 16 1011.5 1011.4 0.0
31/02:00pm 32.5 29.8 10.5 26 12.7 NE 15 32 8 17 1012.1 1012.0 0.0
31/01:30pm 32.1 29.1 10.8 27 12.3 E 17 26 9 14 1012.7 1012.6 0.0
31/01:00pm 31.7 29.0 10.4 27 12.2 ENE 15 28 8 15 1013.3 1013.2 0.0
31/12:30pm 30.9 26.7 9.7 27 12.0 ENE 22 32 12 17 1013.9 1013.8 0.0
31/12:00pm 31.4 27.5 9.6 26 12.3 ENE 20 33 11 18 1014.3 1014.2 0.0
31/11:30am 30.3 27.2 10.3 29 11.4 E 17 30 9 16 1014.8 1014.7 0.0
31/11:00am 29.2 27.7 14.2 40 9.0 ENE 15 20 8 11 1015.4 1015.3 0.0
31/10:30am 28.0 25.6 14.3 43 8.2 ENE 20 30 11 16 1015.8 1015.7 0.0
31/10:00am 27.3 26.2 14.3 45 7.8 ENE 13 24 7 13 1015.9 1015.8 0.0
31/09:30am 26.3 25.6 13.1 44 7.7 ENE 9 17 5 9 1016.0 1015.9 0.0
31/09:00am 24.0 24.0 14.1 54 5.8 ESE 7 13 4 7 1015.9 1015.8 0.0
31/08:30am 21.6 22.5 15.2 67 3.8 SE 4 6 2 3 1015.7 1015.6 0.0
31/08:00am 18.4 20.6 16.4 88 1.2 CALM 0 0 0 0 1015.5 1015.4 0.0
31/07:30am 16.4 18.1 15.3 93 0.6 CALM 0 0 0 0 1015.4 1015.3 0.0
31/07:00am 15.9 17.1 14.9 94 0.6 SE 2 4 1 2 1015.2 1015.1 0.0
31/06:30am 16.1 16.9 14.8 92 0.7 ESE 4 4 2 2 1015.0 1014.9 0.0
31/06:00am 16.4 18.0 14.9 91 0.9 CALM 0 0 0 0 1014.9 1014.8 0.0
31/05:30am 16.7 17.3 15.2 91 0.9 SSE 6 7 3 4 1014.6 1014.5 0.0
31/05:00am 17.3 19.2 15.8 91 0.9 CALM 0 0 0 0 1014.6 1014.5 0.0
31/04:30am 17.6 19.3 16.1 91 0.9 ESE 2 4 1 2 1014.6 1014.5 0.0
31/04:00am 17.9 19.9 15.9 88 1.2 CALM 0 0 0 0 1014.7 1014.6 0.0
31/03:30am 18.5 20.8 16.7 89 1.1 CALM 0 0 0 0 1014.7 1014.6 0.0
31/03:00am 18.6 20.6 16.0 85 1.5 CALM 0 0 0 0 1014.6 1014.5 0.0
31/02:30am 19.4 21.8 17.0 86 1.5 CALM 0 0 0 0 1014.8 1014.7 0.0
31/02:00am 19.9 22.3 17.1 84 1.7 CALM 0 0 0 0 1014.8 1014.7 0.0
31/01:30am 20.6 23.1 17.2 81 2.1 CALM 0 0 0 0 1015.1 1015.0 0.0
31/01:00am 21.5 24.2 17.7 79 2.3 CALM 0 0 0 0 1015.3 1015.2 0.0
31/12:30am 22.2 25.2 18.4 79 2.4 CALM 0 0 0 0 1015.5 1015.4 0.0
31/12:00am 22.9 25.9 18.4 76 2.8 CALM 0 0 0 0 1015.6 1015.5 0.0
 
Date/Time
CST
Temp
°C
App
Temp
°C
Dew
Point
Rel
Hum
%
Delta-T
°C
Wind Press
QNH
hPa
Press
MSL
hPa
Rain
since 9 am
mm
Dir
 
Spd
km/h
Gust
km/h
Spd
kts
Gust
kts
30/11:30pm 24.1 27.4 19.0 73 3.2 CALM 0 0 0 0 1015.7 1015.6 0.0
30/11:00pm 24.9 27.6 19.5 72 3.5 SSW 4 7 2 4 1015.6 1015.5 0.0
30/10:30pm 25.4 27.6 19.3 69 3.9 SW 6 7 3 4 1015.5 1015.4 0.0
30/10:00pm 25.9 28.2 19.5 68 4.1 SW 6 9 3 5 1015.5 1015.4 0.0
30/09:30pm 26.1 28.1 19.2 65 4.4 SW 7 11 4 6 1015.2 1015.1 0.0
30/09:00pm 26.2 28.4 19.3 65 4.4 WSW 6 7 3 4 1014.9 1014.8 0.0
30/08:30pm 26.5 28.4 18.6 62 5.0 WSW 6 9 3 5 1014.5 1014.4 0.0
30/08:00pm 26.2 28.1 16.7 56 5.9 NE 2 4 1 2 1013.8 1013.7 0.0
30/07:30pm 27.3 29.5 17.5 55 6.2 NNW 2 4 1 2 1013.3 1013.2 0.0
30/07:00pm 28.5 30.9 17.1 50 7.2 CALM 0 2 0 1 1012.9 1012.8 0.0
30/06:30pm 29.5 30.8 17.0 47 7.9 NE 6 9 3 5 1012.5 1012.4 0.0
30/06:00pm 30.8 31.9 17.1 43 8.7 NNE 7 11 4 6 1012.2 1012.1 0.0
30/05:30pm 31.6 32.0 16.4 40 9.6 NE 9 17 5 9 1012.0 1011.9 0.0
30/05:00pm 33.9 32.6 11.1 25 13.4 SE 9 17 5 9 1011.8 1011.7 0.0
30/04:30pm 33.6 31.6 11.5 26 13.0 SE 13 22 7 12 1011.8 1011.7 0.0
30/04:00pm 34.3 32.1 10.8 24 13.7 SE 13 19 7 10 1011.8 1011.7 0.0
30/03:30pm 34.4 32.6 12.1 26 13.3 ENE 13 26 7 14 1012.1 1012.0 0.0
30/03:00pm 34.0 32.8 12.9 28 12.7 ESE 11 22 6 12 1012.4 1012.3 0.0
30/02:30pm 34.3 31.9 12.6 27 13.0 E 17 26 9 14 1013.0 1012.9 0.0
30/02:00pm 33.1 30.9 12.1 27 12.4 E 15 24 8 13 1013.6 1013.5 0.0
30/01:30pm 32.8 30.5 12.9 29 11.9 ESE 17 26 9 14 1014.1 1014.0 0.0
30/01:00pm 32.4 29.9 14.1 33 11.1 E 20 30 11 16 1014.7 1014.6 0.0
30/12:30pm 31.5 29.4 14.6 36 10.3 ESE 19 32 10 17 1015.2 1015.1 0.0
30/12:00pm 31.5 29.4 14.6 36 10.3 ESE 19 32 10 17 1015.7 1015.6 0.0

Other Formats:

Comma delimited format used in spreadsheet applications
http://www.bom.gov.au/fwo/IDD60801/IDD60801.94105.axf

JavaScript Object Notation format (JSON) in row-major order
http://www.bom.gov.au/fwo/IDD60801/IDD60801.94105.json